Norwich, Kansas
Current Conditions -  °F | °C
As of 10:07 AM on Thursday 30 Oct 2014 (Local Time) from KICT Reporting Station
Few Clouds Few Clouds  
Wind Chill: 61°   Ceiling: Unl
Heat Index: 61°   Visibility: 10mi
Dew Point: 38°   Wind: 21mph
Humidity: 42%   Direction: 340°NNW
Pressure: 30.13"   Gusts: NA
Location:  37.46°N, 97.85°W
Report Text: KICT 301507Z 34018KT 10SM FEW150 16/03 A3013 RMK AO2 T01610033
Loading
Personal Weather Stations






























Interactive Weather Map New forecast layout! Learn more

10-Day Weather Forecast

Advertisements
Track Severe Weather on mobile